Time;durP1;ratioP1;P1;durP2;ratioP2;P2;SDS_P1;SDS_P2;PMS_P1;PMS_P2;Temp;Humidity;BMP_temperature;BMP_pressure;BME280_temperature;BME280_humidity;BME280_pressure;Samples;Min_cycle;Max_cycle;Signal;HPM_P1;HPM_P2
2022/07/21 00:00:16;;;;;;;;;38.80;32.40;;;;;;;;5223572;28;8811;-74
2022/07/21 00:02:48;;;;;;;;;39.60;34.80;;;;;;;;5246121;28;8783;-73
2022/07/21 00:05:37;;;;;;;;;44.40;35.40;;;;;;;;5246231;28;8775;-75
2022/07/21 00:08:30;;;;;;;;;36.60;33.60;;;;;;;;5246205;28;8949;-74
2022/07/21 00:11:02;;;;;;;;;38.80;33.20;;;;;;;;5246316;28;8791;-74
2022/07/21 00:13:34;;;;;;;;;26.00;25.00;;;;;;;;5246130;28;8798;-74
2022/07/21 00:16:05;;;;;;;;;41.20;35.40;;;;;;;;5247063;28;8783;-74
2022/07/21 00:18:36;;;;;;;;;36.20;32.80;;;;;;;;5229167;28;8821;-74
2022/07/21 00:21:27;;;;;;;;;35.40;31.80;;;;;;;;5246111;28;8827;-74
2022/07/21 00:24:17;;;;;;;;;36.40;28.80;;;;;;;;5258268;28;8832;-74
2022/07/21 00:26:48;;;;;;;;;54.20;42.20;;;;;;;;5266621;28;8823;-74
2022/07/21 00:29:19;;;;;;;;;78.40;64.20;;;;;;;;5249785;28;8785;-74
2022/07/21 00:31:50;;;;;;;;;66.00;53.00;;;;;;;;5249869;28;8812;-74
2022/07/21 00:34:21;;;;;;;;;82.40;70.40;;;;;;;;5266483;28;8772;-75
2022/07/21 00:36:52;;;;;;;;;78.80;60.00;;;;;;;;5233115;28;9588;-74
2022/07/21 00:39:24;;;;;;;;;72.40;55.00;;;;;;;;5224955;28;8841;-73
2022/07/21 00:42:24;;;;;;;;;70.00;54.80;;;;;;;;5245481;28;8791;-76
2022/07/21 00:44:56;;;;;;;;;71.00;53.00;;;;;;;;5246895;28;8767;-74
2022/07/21 00:47:28;;;;;;;;;66.40;51.40;;;;;;;;5245066;28;8823;-73
2022/07/21 00:50:01;;;;;;;;;52.60;41.00;;;;;;;;5245359;28;8775;-73
2022/07/21 00:52:50;;;;;;;;;45.20;37.40;;;;;;;;5245488;28;8775;-73
2022/07/21 00:55:22;;;;;;;;;42.00;35.40;;;;;;;;5246669;28;8909;-74
2022/07/21 00:57:54;;;;;;;;;32.60;28.40;;;;;;;;5245241;28;8914;-74
2022/07/21 01:00:27;;;;;;;;;28.20;25.20;;;;;;;;5228342;28;8783;-73
2022/07/21 01:02:58;;;;;;;;;40.60;33.80;;;;;;;;5245188;28;9542;-74
2022/07/21 01:05:30;;;;;;;;;47.20;37.80;;;;;;;;5245037;28;8803;-74
2022/07/21 01:08:19;;;;;;;;;47.80;38.80;;;;;;;;5245133;28;8822;-74
2022/07/21 01:10:51;;;;;;;;;48.80;38.40;;;;;;;;5244843;28;8783;-74
2022/07/21 01:13:22;;;;;;;;;60.20;44.20;;;;;;;;5245008;28;8876;-74
2022/07/21 01:15:53;;;;;;;;;60.00;42.40;;;;;;;;5228491;28;8794;-74
2022/07/21 01:18:26;;;;;;;;;70.40;50.40;;;;;;;;5228216;28;8787;-74
2022/07/21 01:21:02;;;;;;;;;68.00;49.20;;;;;;;;5228319;28;8775;-74
2022/07/21 01:23:33;;;;;;;;;69.60;52.40;;;;;;;;5244861;28;8861;-74
2022/07/21 01:26:23;;;;;;;;;72.20;54.00;;;;;;;;5244871;28;8791;-73
2022/07/21 01:28:55;;;;;;;;;65.00;51.20;;;;;;;;5250193;28;8825;-74
2022/07/21 01:31:46;;;;;;;;;65.60;49.80;;;;;;;;5244228;28;8795;-74
2022/07/21 01:34:18;;;;;;;;;67.20;51.00;;;;;;;;5251899;28;8792;-73
2022/07/21 01:37:07;;;;;;;;;76.40;56.20;;;;;;;;5250131;28;8857;-75
2022/07/21 01:42:29;;;;;;;;;58.00;45.60;;;;;;;;5266058;28;9664;-73
2022/07/21 01:45:00;;;;;;;;;62.60;48.20;;;;;;;;5232609;28;8791;-74
2022/07/21 01:47:31;;;;;;;;;66.80;49.60;;;;;;;;5253193;28;8877;-74
2022/07/21 01:50:03;;;;;;;;;73.80;55.20;;;;;;;;5255573;28;8777;-73
2022/07/21 01:52:35;;;;;;;;;88.20;75.80;;;;;;;;5254817;28;8811;-74
2022/07/21 01:55:25;;;;;;;;;73.40;61.40;;;;;;;;5249394;28;8783;-74
2022/07/21 01:57:57;;;;;;;;;76.20;63.40;;;;;;;;5234586;28;8815;-73
2022/07/21 02:00:28;;;;;;;;;63.80;50.80;;;;;;;;5247898;28;8807;-74
2022/07/21 02:03:00;;;;;;;;;57.40;46.60;;;;;;;;5232048;28;8787;-74
2022/07/21 02:05:31;;;;;;;;;60.40;49.00;;;;;;;;5249994;28;8788;-74
2022/07/21 02:08:03;;;;;;;;;62.40;50.60;;;;;;;;5231859;28;8880;-74
2022/07/21 02:10:35;;;;;;;;;62.00;49.60;;;;;;;;5231935;28;8800;-74
2022/07/21 02:13:07;;;;;;;;;57.40;46.40;;;;;;;;5248284;28;8807;-74
2022/07/21 02:15:58;;;;;;;;;55.80;46.00;;;;;;;;5234838;28;8782;-76
2022/07/21 02:18:29;;;;;;;;;54.20;42.40;;;;;;;;5248126;28;8779;-76
2022/07/21 02:21:20;;;;;;;;;46.40;39.00;;;;;;;;5248149;28;8778;-75
2022/07/21 02:23:52;;;;;;;;;39.60;31.80;;;;;;;;5253823;28;8783;-76
2022/07/21 02:26:23;;;;;;;;;53.20;41.80;;;;;;;;5236099;28;8771;-77
2022/07/21 02:28:55;;;;;;;;;48.20;37.60;;;;;;;;5269491;28;8830;-75
2022/07/21 02:31:26;;;;;;;;;49.80;41.60;;;;;;;;5256782;28;8803;-74
2022/07/21 02:33:57;;;;;;;;;76.40;55.40;;;;;;;;5269883;28;8913;-74
2022/07/21 02:36:46;;;;;;;;;152.33;129.67;;;;;;;;5251104;28;8912;-73
2022/07/21 02:39:36;;;;;;;;;104.50;94.00;;;;;;;;5248179;28;9837;-73
2022/07/21 02:42:07;;;;;;;;;148.00;127.00;;;;;;;;5243485;28;8855;-72
2022/07/21 02:44:38;;;;;;;;;136.67;119.33;;;;;;;;5248851;28;8774;-72
2022/07/21 02:47:09;;;;;;;;;115.50;102.25;;;;;;;;5242832;28;8985;-74
2022/07/21 02:49:41;;;;;;;;;109.75;95.25;;;;;;;;5263688;28;8808;-73
2022/07/21 02:52:12;;;;;;;;;72.80;62.40;;;;;;;;5269789;28;8822;-73
2022/07/21 02:54:44;;;;;;;;;70.20;55.60;;;;;;;;5251773;28;8925;-74
2022/07/21 02:57:34;;;;;;;;;57.60;47.00;;;;;;;;5254489;28;8773;-74
2022/07/21 03:00:24;;;;;;;;;62.00;48.80;;;;;;;;5268857;28;8784;-74
2022/07/21 03:03:13;;;;;;;;;67.40;52.00;;;;;;;;5264447;28;8819;-75
2022/07/21 03:05:46;;;;;;;;;66.00;51.20;;;;;;;;5248742;28;8779;-76
2022/07/21 03:08:19;;;;;;;;;49.20;41.60;;;;;;;;5231212;28;8953;-76
2022/07/21 03:10:50;;;;;;;;;48.80;40.80;;;;;;;;5230419;28;8783;-75
2022/07/21 03:13:22;;;;;;;;;37.80;33.80;;;;;;;;5213970;28;8798;-75
2022/07/21 03:15:53;;;;;;;;;43.20;37.60;;;;;;;;5247450;28;8778;-76
2022/07/21 03:18:25;;;;;;;;;49.20;41.80;;;;;;;;5231728;28;8856;-75
2022/07/21 03:20:56;;;;;;;;;36.60;34.00;;;;;;;;5220964;28;8802;-74
2022/07/21 03:23:28;;;;;;;;;43.60;37.40;;;;;;;;5230255;28;8822;-74
2022/07/21 03:26:17;;;;;;;;;40.60;35.40;;;;;;;;5253458;28;8907;-74
2022/07/21 03:28:48;;;;;;;;;45.60;38.60;;;;;;;;5251024;28;9741;-74
2022/07/21 03:31:20;;;;;;;;;51.20;43.80;;;;;;;;5269419;28;8777;-76
2022/07/21 03:33:51;;;;;;;;;47.40;39.80;;;;;;;;5251379;28;8884;-72
2022/07/21 03:36:22;;;;;;;;;45.20;38.60;;;;;;;;5252258;28;8773;-72
2022/07/21 03:38:53;;;;;;;;;48.60;39.80;;;;;;;;5247603;28;8913;-71
2022/07/21 03:41:24;;;;;;;;;53.80;44.80;;;;;;;;5246874;28;8813;-72
2022/07/21 03:43:55;;;;;;;;;46.00;38.80;;;;;;;;5230257;28;8791;-71
2022/07/21 03:46:26;;;;;;;;;46.00;39.20;;;;;;;;5229841;28;8815;-73
2022/07/21 03:48:57;;;;;;;;;75.75;67.00;;;;;;;;5229774;28;8807;-73
2022/07/21 03:51:28;;;;;;;;;63.20;51.60;;;;;;;;5247302;28;8783;-73
2022/07/21 03:54:01;;;;;;;;;43.20;37.60;;;;;;;;5247489;28;8772;-74
2022/07/21 03:56:32;;;;;;;;;31.75;30.00;;;;;;;;5229710;28;8910;-73
2022/07/21 03:59:22;;;;;;;;;20.50;20.50;;;;;;;;5247358;28;8768;-73
2022/07/21 04:01:54;;;;;;;;;14.25;13.75;;;;;;;;5266979;28;8788;-74
2022/07/21 04:04:25;;;;;;;;;14.00;14.00;;;;;;;;5268356;28;8788;-74
2022/07/21 04:06:56;;;;;;;;;36.40;33.40;;;;;;;;5233830;28;8813;-74
2022/07/21 04:09:27;;;;;;;;;16.00;16.00;;;;;;;;5254191;28;9563;-74
2022/07/21 04:12:16;;;;;;;;;40.80;36.20;;;;;;;;5242768;28;8844;-75
2022/07/21 04:14:47;;;;;;;;;41.80;36.40;;;;;;;;5224202;28;8828;-74
2022/07/21 04:17:18;;;;;;;;;28.00;28.00;;;;;;;;5246335;28;8783;-73
2022/07/21 04:20:09;;;;;;;;;32.60;31.20;;;;;;;;5255713;28;9436;-74
2022/07/21 04:22:42;;;;;;;;;14.75;14.50;;;;;;;;5230834;28;8773;-73
2022/07/21 04:25:13;;;;;;;;;37.00;34.20;;;;;;;;5229087;28;8869;-72
2022/07/21 04:27:45;;;;;;;;;22.50;21.75;;;;;;;;5245664;28;8834;-73
2022/07/21 04:30:18;;;;;;;;;13.75;13.75;;;;;;;;5256578;28;8913;-72
2022/07/21 04:32:49;;;;;;;;;13.00;13.00;;;;;;;;5245691;28;8790;-72
2022/07/21 04:35:21;;;;;;;;;9.25;9.00;;;;;;;;5254579;28;9523;-73
2022/07/21 04:37:52;;;;;;;;;12.25;12.25;;;;;;;;5228136;28;8829;-73
2022/07/21 04:40:23;;;;;;;;;13.00;13.00;;;;;;;;5214486;28;8855;-72
2022/07/21 04:42:55;;;;;;;;;12.75;12.75;;;;;;;;5257540;28;8796;-71
2022/07/21 04:45:26;;;;;;;;;11.00;11.00;;;;;;;;5249305;28;8818;-73
2022/07/21 04:47:57;;;;;;;;;11.50;11.50;;;;;;;;5254489;28;10237;-70
2022/07/21 04:50:28;;;;;;;;;12.00;12.00;;;;;;;;5243840;28;8815;-74
2022/07/21 04:52:59;;;;;;;;;16.00;16.00;;;;;;;;5211445;28;8945;-71
2022/07/21 04:55:30;;;;;;;;;19.00;19.00;;;;;;;;5226600;28;8798;-72
2022/07/21 04:58:01;;;;;;;;;11.50;11.50;;;;;;;;5227356;28;9719;-71
2022/07/21 05:00:33;;;;;;;;;10.50;10.50;;;;;;;;5247576;28;8822;-74
2022/07/21 05:03:04;;;;;;;;;10.25;10.25;;;;;;;;5243440;28;8845;-72
2022/07/21 05:05:54;;;;;;;;;11.00;11.00;;;;;;;;5243616;28;8936;-72
2022/07/21 05:08:27;;;;;;;;;9.00;9.00;;;;;;;;5226642;28;8823;-73
2022/07/21 05:10:58;;;;;;;;;10.00;10.00;;;;;;;;5227039;28;8799;-72
2022/07/21 05:13:29;;;;;;;;;12.00;12.00;;;;;;;;5254456;28;9517;-73
2022/07/21 05:16:19;;;;;;;;;11.00;11.00;;;;;;;;5245338;28;8815;-73
2022/07/21 05:18:50;;;;;;;;;8.25;8.25;;;;;;;;5264848;28;8808;-72
2022/07/21 05:21:21;;;;;;;;;10.25;10.25;;;;;;;;5236796;28;8942;-72
2022/07/21 05:23:52;;;;;;;;;15.75;15.75;;;;;;;;5235257;28;8814;-74
2022/07/21 05:26:42;;;;;;;;;11.75;10.50;;;;;;;;5252603;28;8795;-73
2022/07/21 05:29:14;;;;;;;;;10.50;10.50;;;;;;;;5230533;28;8799;-72
2022/07/21 05:31:46;;;;;;;;;10.50;10.50;;;;;;;;5243748;28;8773;-72
2022/07/21 05:34:17;;;;;;;;;11.25;11.25;;;;;;;;5260266;28;8812;-72
2022/07/21 05:36:48;;;;;;;;;8.25;8.25;;;;;;;;5235691;28;8821;-72
2022/07/21 05:39:19;;;;;;;;;11.25;11.25;;;;;;;;5269951;28;8873;-72
2022/07/21 05:42:08;;;;;;;;;12.25;12.25;;;;;;;;5248979;28;8942;-72
2022/07/21 05:44:39;;;;;;;;;7.75;7.75;;;;;;;;5250443;28;8790;-72
2022/07/21 05:47:10;;;;;;;;;8.50;8.50;;;;;;;;5239563;28;8826;-72
2022/07/21 05:49:42;;;;;;;;;7.50;7.50;;;;;;;;5241104;28;9660;-72
2022/07/21 05:52:31;;;;;;;;;7.75;7.75;;;;;;;;5249230;28;8783;-72
2022/07/21 05:55:03;;;;;;;;;7.00;7.00;;;;;;;;5237256;28;8800;-72
2022/07/21 05:57:36;;;;;;;;;8.00;8.00;;;;;;;;5260580;28;8857;-71
2022/07/21 06:00:25;;;;;;;;;7.00;7.00;;;;;;;;5253956;28;8876;-74
2022/07/21 06:02:56;;;;;;;;;6.25;6.25;;;;;;;;5231816;28;8779;-74
2022/07/21 06:05:28;;;;;;;;;4.75;4.75;;;;;;;;5215191;28;8815;-71
2022/07/21 06:08:01;;;;;;;;;6.00;6.00;;;;;;;;5249761;28;8795;-74
2022/07/21 06:10:51;;;;;;;;;6.50;6.50;;;;;;;;5248766;28;8766;-71
2022/07/21 06:13:22;;;;;;;;;5.75;5.75;;;;;;;;5223183;28;8818;-71
2022/07/21 06:15:53;;;;;;;;;11.00;11.00;;;;;;;;5245411;28;8791;-69
2022/07/21 06:18:24;;;;;;;;;40.75;36.00;;;;;;;;5268200;28;9539;-70
2022/07/21 06:21:15;;;;;;;;;5.50;5.50;;;;;;;;5247543;28;8819;-69
2022/07/21 06:23:46;;;;;;;;;11.50;11.50;;;;;;;;5258432;28;8828;-70
2022/07/21 06:26:17;;;;;;;;;7.75;7.75;;;;;;;;5236623;28;8876;-69
2022/07/21 06:28:48;;;;;;;;;8.50;8.50;;;;;;;;5247932;28;8839;-70
2022/07/21 06:31:19;;;;;;;;;7.67;7.67;;;;;;;;5249141;28;8779;-70
2022/07/21 06:33:51;;;;;;;;;9.75;9.25;;;;;;;;5248065;28;11517;-71
2022/07/21 06:36:22;;;;;;;;;7.50;7.50;;;;;;;;5231359;28;8791;-70
2022/07/21 06:38:53;;;;;;;;;6.00;6.00;;;;;;;;5214508;28;8803;-70
2022/07/21 06:41:24;;;;;;;;;5.00;5.00;;;;;;;;5247852;28;8799;-70
2022/07/21 06:43:55;;;;;;;;;5.00;5.00;;;;;;;;5231022;28;8803;-70
2022/07/21 06:46:35;;;;;;;;;6.00;5.50;;;;;;;;5247031;28;8837;-69
2022/07/21 06:49:06;;;;;;;;;8.00;8.00;;;;;;;;5247761;28;8802;-69
2022/07/21 06:51:37;;;;;;;;;5.75;5.75;;;;;;;;5214512;28;9583;-70
2022/07/21 06:54:09;;;;;;;;;6.75;6.75;;;;;;;;5214521;28;8775;-70
2022/07/21 06:56:40;;;;;;;;;6.00;6.00;;;;;;;;5231130;28;8798;-70
2022/07/21 06:59:29;;;;;;;;;6.50;6.50;;;;;;;;5247349;28;9678;-71
2022/07/21 07:02:18;;;;;;;;;6.00;6.00;;;;;;;;5247447;28;8795;-70
2022/07/21 07:04:49;;;;;;;;;9.00;9.00;;;;;;;;5247288;28;8812;-70
2022/07/21 07:07:38;;;;;;;;;9.25;9.25;;;;;;;;5247219;28;8855;-70
2022/07/21 07:10:11;;;;;;;;;9.75;9.75;;;;;;;;5230638;28;8813;-70
2022/07/21 07:12:42;;;;;;;;;11.75;11.75;;;;;;;;5248350;28;8795;-70
2022/07/21 07:15:13;;;;;;;;;5.00;5.00;;;;;;;;5214039;28;9528;-69
2022/07/21 07:17:44;;;;;;;;;3.00;3.00;;;;;;;;5247263;28;8798;-69
2022/07/21 07:20:15;;;;;;;;;7.25;7.25;;;;;;;;5214019;28;8818;-70
2022/07/21 07:22:46;;;;;;;;;3.25;3.25;;;;;;;;5247075;28;8832;-72
2022/07/21 07:25:17;;;;;;;;;2.50;2.50;;;;;;;;5230201;28;8818;-69
2022/07/21 07:27:50;;;;;;;;;5.00;5.00;;;;;;;;5213729;28;8849;-69
2022/07/21 07:30:21;;;;;;;;;8.25;8.25;;;;;;;;5248315;28;8790;-70
2022/07/21 07:32:52;;;;;;;;;9.25;9.25;;;;;;;;5230600;28;9494;-70
2022/07/21 07:35:23;;;;;;;;;4.50;4.50;;;;;;;;5230336;28;8814;-71
2022/07/21 07:37:54;;;;;;;;;12.00;12.00;;;;;;;;5246955;28;8795;-72
2022/07/21 07:40:26;;;;;;;;;5.00;5.00;;;;;;;;5247611;28;8795;-70
2022/07/21 07:42:57;;;;;;;;;3.50;3.50;;;;;;;;5230624;28;8775;-71
2022/07/21 07:45:28;;;;;;;;;6.00;6.00;;;;;;;;5247930;28;8883;-69
2022/07/21 07:48:03;;;;;;;;;13.00;12.50;;;;;;;;5246625;28;8818;-71
2022/07/21 07:50:34;;;;;;;;;5.25;5.25;;;;;;;;5246474;28;8791;-71
2022/07/21 07:53:05;;;;;;;;;5.00;5.00;;;;;;;;5229825;28;8760;-70
2022/07/21 07:55:37;;;;;;;;;3.25;3.25;;;;;;;;5229962;28;8809;-70
2022/07/21 07:58:09;;;;;;;;;3.50;3.50;;;;;;;;5245446;28;8807;-71
2022/07/21 08:00:40;;;;;;;;;3.00;3.00;;;;;;;;5229903;28;8875;-69
2022/07/21 08:03:11;;;;;;;;;0.50;0.50;;;;;;;;5229779;28;8787;-71
2022/07/21 08:06:03;;;;;;;;;2.00;2.00;;;;;;;;5246356;28;8909;-70
2022/07/21 08:08:34;;;;;;;;;7.00;7.00;;;;;;;;5245794;28;8827;-71
2022/07/21 08:11:06;;;;;;;;;8.50;8.50;;;;;;;;5246077;28;8879;-71
2022/07/21 08:13:37;;;;;;;;;12.50;12.50;;;;;;;;5212914;28;9643;-71
2022/07/21 08:16:08;;;;;;;;;11.67;11.67;;;;;;;;5229613;28;8795;-69
2022/07/21 08:18:39;;;;;;;;;6.25;6.25;;;;;;;;5229231;28;8791;-70
2022/07/21 08:21:11;;;;;;;;;4.75;4.75;;;;;;;;5229420;28;9516;-69
2022/07/21 08:23:42;;;;;;;;;4.00;4.00;;;;;;;;5229143;28;8811;-71
2022/07/21 08:26:13;;;;;;;;;4.33;4.33;;;;;;;;5245908;28;8945;-70
2022/07/21 08:28:44;;;;;;;;;3.00;3.00;;;;;;;;5245832;28;10154;-71
2022/07/21 08:31:16;;;;;;;;;4.25;4.00;;;;;;;;5246137;28;9718;-71
2022/07/21 08:33:47;;;;;;;;;23.25;21.75;;;;;;;;5245411;28;8778;-71
2022/07/21 08:36:18;;;;;;;;;7.50;7.50;;;;;;;;5245595;28;8795;-72
2022/07/21 08:39:08;;;;;;;;;5.00;5.00;;;;;;;;5246896;28;9564;-70
2022/07/21 08:41:57;;;;;;;;;6.00;6.00;;;;;;;;5246908;28;8771;-70
2022/07/21 08:44:29;;;;;;;;;8.00;8.00;;;;;;;;5212477;28;8775;-70
2022/07/21 08:47:00;;;;;;;;;5.00;5.00;;;;;;;;5212047;28;8787;-70
2022/07/21 08:49:33;;;;;;;;;5.00;5.00;;;;;;;;5246507;28;9320;-70
2022/07/21 08:52:07;;;;;;;;;11.25;11.25;;;;;;;;5228737;28;9518;-71
2022/07/21 08:54:38;;;;;;;;;48.40;41.20;;;;;;;;5245272;28;8810;-70
2022/07/21 08:57:27;;;;;;;;;4.00;4.00;;;;;;;;5245638;28;8767;-71
2022/07/21 08:59:59;;;;;;;;;4.00;4.00;;;;;;;;5228886;28;8898;-71
2022/07/21 09:02:50;;;;;;;;;2.75;2.75;;;;;;;;5245496;28;8875;-71
2022/07/21 09:05:21;;;;;;;;;2.00;2.00;;;;;;;;5245355;28;8805;-70
2022/07/21 09:07:54;;;;;;;;;3.00;3.00;;;;;;;;5244860;28;8831;-70
2022/07/21 09:10:26;;;;;;;;;6.50;6.00;;;;;;;;5228405;28;11442;-70
2022/07/21 09:13:02;;;;;;;;;2.75;2.75;;;;;;;;5245525;28;8795;-70
2022/07/21 09:15:35;;;;;;;;;1.50;1.50;;;;;;;;5228508;28;8803;-71
2022/07/21 09:18:15;;;;;;;;;2.50;2.50;;;;;;;;5228349;28;8787;-71
2022/07/21 09:20:57;;;;;;;;;32.00;30.80;;;;;;;;5229177;28;8879;-71
2022/07/21 09:24:37;;;;;;;;;2.75;2.75;;;;;;;;5232982;28;8883;-71
2022/07/21 09:30:22;;;;;;;;;31.25;30.25;;;;;;;;5169811;28;8791;-71
2022/07/21 09:32:53;;;;;;;;;9.33;9.33;;;;;;;;5169317;28;8800;-71
2022/07/21 09:35:24;;;;;;;;;9.25;9.25;;;;;;;;5193033;28;12188;-71
2022/07/21 09:38:13;;;;;;;;;4.25;4.25;;;;;;;;5212126;28;8815;-70
2022/07/21 09:40:47;;;;;;;;;3.00;3.00;;;;;;;;5211876;28;8817;-71
2022/07/21 09:43:30;;;;;;;;;7.50;7.50;;;;;;;;5245010;28;8825;-71
2022/07/21 09:46:04;;;;;;;;;4.25;4.25;;;;;;;;5244438;28;8787;-71
2022/07/21 09:48:54;;;;;;;;;1.50;1.50;;;;;;;;5230848;28;8891;-71
2022/07/21 09:51:27;;;;;;;;;3.25;3.25;;;;;;;;5227850;28;8787;-71
2022/07/21 09:53:58;;;;;;;;;2.00;2.00;;;;;;;;5227954;28;8799;-71
2022/07/21 09:56:31;;;;;;;;;0.00;0.00;;;;;;;;5228108;28;8783;-71
2022/07/21 09:59:04;;;;;;;;;1.75;1.75;;;;;;;;5211709;28;8801;-71
2022/07/21 10:01:39;;;;;;;;;2.75;2.75;;;;;;;;5244652;28;9557;-70
2022/07/21 10:04:19;;;;;;;;;1.75;1.75;;;;;;;;5229544;28;9490;-70
2022/07/21 10:06:51;;;;;;;;;1.00;1.00;;;;;;;;5244509;28;8787;-70
2022/07/21 10:09:22;;;;;;;;;1.50;1.50;;;;;;;;5227956;28;8790;-71
2022/07/21 10:11:54;;;;;;;;;1.75;1.75;;;;;;;;5244619;28;9535;-71
2022/07/21 10:14:43;;;;;;;;;2.00;2.00;;;;;;;;5231186;28;9540;-71
2022/07/21 10:17:15;;;;;;;;;1.00;1.00;;;;;;;;5211324;28;8806;-70
2022/07/21 10:20:11;;;;;;;;;2.75;2.75;;;;;;;;5228017;28;8819;-71
2022/07/21 10:23:11;;;;;;;;;21.00;20.75;;;;;;;;5233883;28;8787;-70
2022/07/21 10:25:43;;;;;;;;;6.00;6.00;;;;;;;;5215257;28;8775;-70
2022/07/21 10:28:42;;;;;;;;;14.00;14.00;;;;;;;;5215111;28;8975;-70
2022/07/21 10:31:31;;;;;;;;;4.00;4.00;;;;;;;;5249496;28;8780;-72
2022/07/21 10:34:02;;;;;;;;;0.00;0.00;;;;;;;;5249097;28;8815;-70
2022/07/21 10:36:45;;;;;;;;;16.25;15.75;;;;;;;;5216429;28;8799;-70
2022/07/21 10:39:36;;;;;;;;;9.75;9.75;;;;;;;;5248676;28;9458;-70
2022/07/21 10:42:17;;;;;;;;;6.50;5.75;;;;;;;;5214985;28;8803;-70
2022/07/21 10:44:50;;;;;;;;;3.00;3.00;;;;;;;;5248737;28;8779;-70
2022/07/21 10:47:24;;;;;;;;;2.00;2.00;;;;;;;;5249371;28;8892;-70
2022/07/21 10:49:57;;;;;;;;;8.50;8.50;;;;;;;;5231674;28;8775;-69
2022/07/21 10:52:39;;;;;;;;;6.50;6.50;;;;;;;;5249611;28;8834;-70
2022/07/21 10:55:10;;;;;;;;;4.00;4.00;;;;;;;;5248507;28;8873;-70
2022/07/21 10:57:47;;;;;;;;;7.00;7.00;;;;;;;;5215026;28;8767;-70
2022/07/21 11:00:19;;;;;;;;;3.50;3.50;;;;;;;;5247734;28;8815;-70
2022/07/21 11:02:56;;;;;;;;;2.00;2.00;;;;;;;;5247335;28;8780;-71
2022/07/21 11:06:05;;;;;;;;;0.00;0.00;;;;;;;;5233397;28;8783;-70
2022/07/21 11:08:43;;;;;;;;;2.00;2.00;;;;;;;;5230725;28;8950;-71
2022/07/21 11:11:14;;;;;;;;;0.00;0.00;;;;;;;;5230540;28;8799;-70
2022/07/21 11:14:15;;;;;;;;;1.25;1.25;;;;;;;;5231027;28;9525;-70
2022/07/21 11:16:49;;;;;;;;;1.00;1.00;;;;;;;;5217248;28;8801;-70
2022/07/21 11:19:49;;;;;;;;;1.50;1.50;;;;;;;;5230879;28;8775;-72
2022/07/21 11:22:21;;;;;;;;;0.75;0.75;;;;;;;;5223927;28;9608;-71
2022/07/21 11:25:03;;;;;;;;;2.75;2.75;;;;;;;;5246730;28;8941;-71
2022/07/21 11:27:46;;;;;;;;;11.25;11.00;;;;;;;;5232270;28;8823;-71
2022/07/21 11:30:20;;;;;;;;;3.75;3.75;;;;;;;;5230868;28;8822;-71
2022/07/21 11:32:54;;;;;;;;;3.50;3.50;;;;;;;;5246879;28;8797;-71
2022/07/21 11:35:45;;;;;;;;;6.00;6.00;;;;;;;;5232896;28;8841;-70
2022/07/21 11:38:16;;;;;;;;;25.67;25.67;;;;;;;;5246902;28;8795;-70
2022/07/21 11:40:47;;;;;;;;;2.75;2.75;;;;;;;;5213650;28;12192;-71
2022/07/21 11:43:18;;;;;;;;;1.00;1.00;;;;;;;;5246899;28;8806;-71
2022/07/21 11:45:53;;;;;;;;;2.00;2.00;;;;;;;;5247810;28;8803;-70
2022/07/21 11:48:33;;;;;;;;;2.75;2.75;;;;;;;;5213652;28;8803;-70
2022/07/21 11:51:04;;;;;;;;;4.50;4.50;;;;;;;;5230399;28;8779;-70
2022/07/21 11:53:42;;;;;;;;;14.25;14.25;;;;;;;;5246411;28;8787;-71
2022/07/21 11:56:15;;;;;;;;;16.50;15.25;;;;;;;;5246479;28;8813;-71
2022/07/21 11:58:48;;;;;;;;;11.00;11.00;;;;;;;;5229698;28;8771;-70
2022/07/21 12:01:21;;;;;;;;;15.75;15.00;;;;;;;;5246120;28;9524;-70
2022/07/21 12:03:52;;;;;;;;;7.00;7.00;;;;;;;;5234546;28;9556;-71
2022/07/21 12:06:23;;;;;;;;;0.25;0.25;;;;;;;;5257231;28;8806;-69
2022/07/21 12:08:54;;;;;;;;;2.25;2.25;;;;;;;;5266535;28;8832;-71
2022/07/21 12:11:32;;;;;;;;;2.75;2.75;;;;;;;;5249860;28;8850;-71
2022/07/21 12:14:03;;;;;;;;;6.75;6.75;;;;;;;;5267182;28;8989;-69
2022/07/21 12:16:46;;;;;;;;;7.33;7.33;;;;;;;;5249850;28;8911;-69
2022/07/21 12:19:17;;;;;;;;;12.50;12.50;;;;;;;;5266932;28;8792;-70
2022/07/21 12:22:07;;;;;;;;;3.00;3.00;;;;;;;;5266134;28;9603;-69
2022/07/21 12:24:55;;;;;;;;;3.00;3.00;;;;;;;;5257942;28;8815;-69
2022/07/21 12:27:26;;;;;;;;;3.00;3.00;;;;;;;;5248133;28;8823;-70
2022/07/21 12:29:58;;;;;;;;;2.25;2.25;;;;;;;;5237229;28;8890;-70
2022/07/21 12:32:48;;;;;;;;;0.00;0.00;;;;;;;;5257753;28;8823;-70
2022/07/21 12:35:46;;;;;;;;;2.00;2.00;;;;;;;;5263511;28;8807;-70
2022/07/21 12:38:35;;;;;;;;;1.75;1.75;;;;;;;;5249987;28;9479;-71
2022/07/21 12:41:09;;;;;;;;;1.00;1.00;;;;;;;;5245851;28;8790;-71
2022/07/21 12:43:40;;;;;;;;;1.00;1.00;;;;;;;;5246739;28;8787;-70
2022/07/21 12:46:12;;;;;;;;;1.00;1.00;;;;;;;;5252519;28;8811;-70
2022/07/21 12:48:44;;;;;;;;;3.25;3.25;;;;;;;;5240485;28;8823;-71
2022/07/21 12:51:20;;;;;;;;;2.00;2.00;;;;;;;;5235722;28;8880;-70
2022/07/21 12:53:52;;;;;;;;;3.00;3.00;;;;;;;;5252675;28;8783;-71
2022/07/21 12:56:41;;;;;;;;;2.25;2.25;;;;;;;;5256177;28;8813;-71
2022/07/21 12:59:31;;;;;;;;;0.50;0.50;;;;;;;;5265755;28;8789;-69
2022/07/21 13:02:02;;;;;;;;;5.25;5.25;;;;;;;;5262684;28;8972;-70
2022/07/21 13:04:51;;;;;;;;;1.50;1.50;;;;;;;;5254557;28;8837;-70
2022/07/21 13:07:41;;;;;;;;;1.50;1.50;;;;;;;;5244147;28;8811;-72
2022/07/21 13:10:30;;;;;;;;;1.50;1.50;;;;;;;;5231474;28;8929;-71
2022/07/21 13:13:20;;;;;;;;;4.00;4.00;;;;;;;;5258585;28;8796;-71
2022/07/21 13:15:51;;;;;;;;;3.00;3.00;;;;;;;;5265591;28;8785;-70
2022/07/21 13:18:22;;;;;;;;;2.25;2.25;;;;;;;;5211648;28;8921;-73
2022/07/21 13:20:55;;;;;;;;;3.00;3.00;;;;;;;;5228071;28;8787;-71
2022/07/21 13:23:26;;;;;;;;;4.25;4.25;;;;;;;;5228231;28;8826;-69
2022/07/21 13:25:57;;;;;;;;;5.75;5.00;;;;;;;;5227682;28;8771;-70
2022/07/21 13:28:28;;;;;;;;;22.00;22.00;;;;;;;;5248887;28;8890;-70
2022/07/21 13:31:20;;;;;;;;;16.50;16.50;;;;;;;;5251695;28;10781;-70
2022/07/21 13:33:51;;;;;;;;;2.25;2.25;;;;;;;;5232063;28;9507;-70
2022/07/21 13:36:22;;;;;;;;;21.25;21.25;;;;;;;;5240749;28;9530;-71
2022/07/21 13:38:54;;;;;;;;;2.50;2.50;;;;;;;;5228083;28;8868;-72
2022/07/21 13:41:25;;;;;;;;;2.25;2.25;;;;;;;;5211528;28;9576;-71
2022/07/21 13:43:56;;;;;;;;;2.00;2.00;;;;;;;;5211454;28;8787;-70
2022/07/21 13:46:27;;;;;;;;;3.00;3.00;;;;;;;;5228162;28;9538;-69
2022/07/21 13:48:59;;;;;;;;;30.80;27.80;;;;;;;;5233511;28;8904;-71
2022/07/21 13:51:30;;;;;;;;;5.00;5.00;;;;;;;;5249301;28;9512;-71
2022/07/21 13:54:01;;;;;;;;;57.00;47.00;;;;;;;;5253594;28;8804;-70
2022/07/21 13:56:51;;;;;;;;;9.50;9.50;;;;;;;;5268498;28;8760;-69
2022/07/21 13:59:22;;;;;;;;;23.75;23.75;;;;;;;;5269106;28;8812;-70
2022/07/21 14:01:53;;;;;;;;;31.25;30.00;;;;;;;;5263407;28;9515;-69
2022/07/21 14:04:24;;;;;;;;;12.50;12.50;;;;;;;;5231986;28;8804;-70
2022/07/21 14:06:55;;;;;;;;;0.50;0.50;;;;;;;;5259608;28;8827;-72
2022/07/21 14:09:26;;;;;;;;;1.50;1.50;;;;;;;;5249966;28;9585;-71
2022/07/21 14:11:58;;;;;;;;;2.75;2.75;;;;;;;;5267939;28;9025;-70
2022/07/21 14:14:54;;;;;;;;;19.25;19.25;;;;;;;;5269029;28;8816;-72
2022/07/21 14:17:24;;;;;;;;;9.00;9.00;;;;;;;;5255691;28;8799;-70
2022/07/21 14:19:55;;;;;;;;;18.75;18.75;;;;;;;;5248031;28;8937;-70
2022/07/21 14:22:48;;;;;;;;;65.80;58.20;;;;;;;;5234606;28;8807;-70
2022/07/21 14:25:20;;;;;;;;;9.50;9.50;;;;;;;;5231488;28;9533;-71
2022/07/21 14:27:53;;;;;;;;;35.25;32.00;;;;;;;;5231387;28;9514;-71
2022/07/21 14:30:28;;;;;;;;;17.00;17.00;;;;;;;;5260531;28;8792;-70
2022/07/21 14:32:59;;;;;;;;;5.25;5.25;;;;;;;;5249300;28;8779;-71
2022/07/21 14:35:48;;;;;;;;;12.50;12.50;;;;;;;;5251644;28;8804;-70
2022/07/21 14:38:22;;;;;;;;;4.00;4.00;;;;;;;;5262296;28;8791;-70
2022/07/21 14:40:56;;;;;;;;;10.25;10.25;;;;;;;;5220710;28;8872;-70
2022/07/21 14:43:27;;;;;;;;;38.25;34.50;;;;;;;;5267038;28;8808;-70
2022/07/21 14:45:59;;;;;;;;;15.25;15.25;;;;;;;;5244879;28;8827;-71
2022/07/21 14:48:30;;;;;;;;;8.33;8.33;;;;;;;;5259093;28;8941;-71
2022/07/21 14:51:02;;;;;;;;;36.00;33.00;;;;;;;;5244583;28;8806;-71
2022/07/21 14:53:33;;;;;;;;;40.25;35.25;;;;;;;;5230689;28;8798;-71
2022/07/21 14:56:04;;;;;;;;;31.50;30.75;;;;;;;;5247467;28;8784;-71
2022/07/21 14:58:35;;;;;;;;;48.00;41.00;;;;;;;;5252181;28;8804;-70
2022/07/21 15:01:06;;;;;;;;;67.80;59.20;;;;;;;;5243898;28;8799;-72
2022/07/21 15:03:37;;;;;;;;;12.75;12.75;;;;;;;;5245599;28;8801;-71
2022/07/21 15:06:09;;;;;;;;;11.50;11.50;;;;;;;;5232256;28;8812;-71
2022/07/21 15:08:40;;;;;;;;;7.25;6.50;;;;;;;;5249847;28;9535;-72
2022/07/21 15:11:11;;;;;;;;;5.75;5.75;;;;;;;;5249456;28;8792;-70
2022/07/21 15:13:42;;;;;;;;;8.25;8.25;;;;;;;;5266272;28;8781;-71
2022/07/21 15:16:14;;;;;;;;;10.50;10.50;;;;;;;;5248355;28;8812;-72
2022/07/21 15:18:46;;;;;;;;;8.75;8.75;;;;;;;;5249749;28;9510;-71
2022/07/21 15:21:17;;;;;;;;;5.00;5.00;;;;;;;;5232680;28;8935;-71
2022/07/21 15:23:49;;;;;;;;;4.67;4.67;;;;;;;;5266140;28;9684;-72
2022/07/21 15:26:39;;;;;;;;;3.00;2.75;;;;;;;;5266211;28;10413;-70
2022/07/21 15:29:10;;;;;;;;;2.50;2.50;;;;;;;;5249219;28;8855;-72
2022/07/21 15:32:00;;;;;;;;;5.50;5.50;;;;;;;;5245356;28;8856;-71
2022/07/21 15:34:33;;;;;;;;;4.00;4.00;;;;;;;;5245986;28;8803;-72
2022/07/21 15:37:04;;;;;;;;;5.00;5.00;;;;;;;;5227815;28;8860;-72
2022/07/21 15:39:35;;;;;;;;;4.25;4.25;;;;;;;;5245154;28;8795;-71